sensor_id;sensor_type;location;lat;lon;timestamp;pressure;altitude;pressure_sealevel;temperature;humidity
32237;BME280;18726;44.732;10.550;2023-12-04T00:00:00;101941.25;;;7.71;100.00
32237;BME280;18726;44.732;10.550;2023-12-04T00:03:04;101948.31;;;8.45;100.00
32237;BME280;18726;44.732;10.550;2023-12-04T00:06:09;101946.41;;;8.46;100.00
32237;BME280;18726;44.732;10.550;2023-12-04T00:09:13;101954.25;;;8.61;100.00
32237;BME280;18726;44.732;10.550;2023-12-04T00:12:17;101959.19;;;9.09;100.00
32237;BME280;18726;44.732;10.550;2023-12-04T00:15:21;101956.50;;;9.31;100.00
32237;BME280;18726;44.732;10.550;2023-12-04T00:18:27;101950.97;;;9.59;100.00
32237;BME280;18726;44.732;10.550;2023-12-04T00:21:30;101957.03;;;9.78;100.00
32237;BME280;18726;44.732;10.550;2023-12-04T00:24:34;101940.88;;;9.73;100.00
32237;BME280;18726;44.732;10.550;2023-12-04T00:27:38;101934.28;;;9.43;100.00
32237;BME280;18726;44.732;10.550;2023-12-04T00:30:42;101946.03;;;9.16;100.00
32237;BME280;18726;44.732;10.550;2023-12-04T00:33:46;101948.03;;;9.46;100.00
32237;BME280;18726;44.732;10.550;2023-12-04T00:36:51;101935.66;;;9.85;100.00
32237;BME280;18726;44.732;10.550;2023-12-04T00:39:55;101945.34;;;8.97;88.53
32237;BME280;18726;44.732;10.550;2023-12-04T00:42:58;101933.22;;;7.66;96.93
32237;BME280;18726;44.732;10.550;2023-12-04T00:46:03;101927.50;;;6.97;100.00
32237;BME280;18726;44.732;10.550;2023-12-04T00:49:06;101921.56;;;6.34;100.00
32237;BME280;18726;44.732;10.550;2023-12-04T00:52:10;101915.72;;;6.46;100.00
32237;BME280;18726;44.732;10.550;2023-12-04T00:55:14;101917.09;;;6.67;100.00
32237;BME280;18726;44.732;10.550;2023-12-04T00:58:18;101923.19;;;7.34;100.00
32237;BME280;18726;44.732;10.550;2023-12-04T01:01:21;101907.66;;;8.18;100.00
32237;BME280;18726;44.732;10.550;2023-12-04T01:04:24;101908.28;;;7.69;100.00
32237;BME280;18726;44.732;10.550;2023-12-04T01:07:28;101900.09;;;7.41;100.00
32237;BME280;18726;44.732;10.550;2023-12-04T01:10:32;101897.75;;;7.35;100.00
32237;BME280;18726;44.732;10.550;2023-12-04T01:13:36;101896.50;;;7.92;100.00
32237;BME280;18726;44.732;10.550;2023-12-04T01:16:40;101899.13;;;8.11;100.00
32237;BME280;18726;44.732;10.550;2023-12-04T01:19:43;101910.16;;;8.83;100.00
32237;BME280;18726;44.732;10.550;2023-12-04T01:22:47;101904.88;;;8.51;100.00
32237;BME280;18726;44.732;10.550;2023-12-04T01:25:51;101901.84;;;8.79;100.00
32237;BME280;18726;44.732;10.550;2023-12-04T01:28:55;101899.63;;;8.82;100.00
32237;BME280;18726;44.732;10.550;2023-12-04T01:31:59;101898.09;;;9.25;100.00
32237;BME280;18726;44.732;10.550;2023-12-04T01:35:03;101899.53;;;8.87;100.00
32237;BME280;18726;44.732;10.550;2023-12-04T01:38:06;101901.59;;;7.80;100.00
32237;BME280;18726;44.732;10.550;2023-12-04T01:41:11;101901.69;;;8.35;100.00
32237;BME280;18726;44.732;10.550;2023-12-04T01:44:15;101888.41;;;7.92;100.00
32237;BME280;18726;44.732;10.550;2023-12-04T01:47:19;101886.00;;;7.26;100.00
32237;BME280;18726;44.732;10.550;2023-12-04T01:50:24;101886.88;;;6.65;100.00
32237;BME280;18726;44.732;10.550;2023-12-04T01:53:27;101874.34;;;6.07;100.00
32237;BME280;18726;44.732;10.550;2023-12-04T01:56:33;101870.63;;;6.03;100.00
32237;BME280;18726;44.732;10.550;2023-12-04T01:59:38;101865.91;;;5.90;100.00
32237;BME280;18726;44.732;10.550;2023-12-04T02:02:42;101878.38;;;7.14;100.00
32237;BME280;18726;44.732;10.550;2023-12-04T02:05:46;101881.47;;;7.40;100.00
32237;BME280;18726;44.732;10.550;2023-12-04T02:08:50;101870.66;;;7.40;100.00
32237;BME280;18726;44.732;10.550;2023-12-04T02:11:54;101878.75;;;6.89;100.00
32237;BME280;18726;44.732;10.550;2023-12-04T02:14:58;101877.09;;;6.50;100.00
32237;BME280;18726;44.732;10.550;2023-12-04T02:18:03;101894.06;;;6.32;100.00
32237;BME280;18726;44.732;10.550;2023-12-04T02:21:07;101887.91;;;6.02;100.00
32237;BME280;18726;44.732;10.550;2023-12-04T02:24:11;101898.47;;;6.23;100.00
32237;BME280;18726;44.732;10.550;2023-12-04T02:27:22;101902.88;;;6.99;100.00
32237;BME280;18726;44.732;10.550;2023-12-04T02:30:28;101912.00;;;7.40;100.00
32237;BME280;18726;44.732;10.550;2023-12-04T02:35:56;101908.69;;;6.68;100.00
32237;BME280;18726;44.732;10.550;2023-12-04T02:39:00;101913.03;;;7.26;100.00
32237;BME280;18726;44.732;10.550;2023-12-04T02:42:04;101898.75;;;8.18;100.00
32237;BME280;18726;44.732;10.550;2023-12-04T02:45:09;101905.91;;;8.55;100.00
32237;BME280;18726;44.732;10.550;2023-12-04T02:48:13;101902.38;;;7.67;100.00
32237;BME280;18726;44.732;10.550;2023-12-04T02:51:16;101898.28;;;6.99;100.00
32237;BME280;18726;44.732;10.550;2023-12-04T02:54:20;101894.66;;;6.90;100.00
32237;BME280;18726;44.732;10.550;2023-12-04T02:57:23;101893.81;;;7.92;100.00
32237;BME280;18726;44.732;10.550;2023-12-04T03:00:27;101892.44;;;7.62;100.00
32237;BME280;18726;44.732;10.550;2023-12-04T03:03:30;101886.38;;;7.84;100.00
32237;BME280;18726;44.732;10.550;2023-12-04T03:06:33;101902.03;;;8.14;100.00
32237;BME280;18726;44.732;10.550;2023-12-04T03:09:37;101896.47;;;8.52;100.00
32237;BME280;18726;44.732;10.550;2023-12-04T03:12:41;101895.78;;;8.96;100.00
32237;BME280;18726;44.732;10.550;2023-12-04T03:15:44;101896.16;;;8.54;100.00
32237;BME280;18726;44.732;10.550;2023-12-04T03:18:47;101893.84;;;8.20;100.00
32237;BME280;18726;44.732;10.550;2023-12-04T03:21:51;101900.75;;;8.67;100.00
32237;BME280;18726;44.732;10.550;2023-12-04T03:24:54;101903.16;;;8.27;100.00
32237;BME280;18726;44.732;10.550;2023-12-04T03:27:58;101913.16;;;7.99;100.00
32237;BME280;18726;44.732;10.550;2023-12-04T03:31:01;101900.00;;;7.79;100.00
32237;BME280;18726;44.732;10.550;2023-12-04T03:34:05;101898.50;;;7.40;100.00
32237;BME280;18726;44.732;10.550;2023-12-04T03:37:08;101897.78;;;7.16;100.00
32237;BME280;18726;44.732;10.550;2023-12-04T03:40:12;101879.00;;;8.03;100.00
32237;BME280;18726;44.732;10.550;2023-12-04T03:43:16;101883.16;;;7.82;100.00
32237;BME280;18726;44.732;10.550;2023-12-04T03:46:19;101872.13;;;7.65;100.00
32237;BME280;18726;44.732;10.550;2023-12-04T03:49:23;101874.38;;;8.18;100.00
32237;BME280;18726;44.732;10.550;2023-12-04T03:52:27;101874.59;;;8.62;100.00
32237;BME280;18726;44.732;10.550;2023-12-04T03:55:30;101879.78;;;8.18;100.00
32237;BME280;18726;44.732;10.550;2023-12-04T03:58:34;101884.09;;;8.19;100.00
32237;BME280;18726;44.732;10.550;2023-12-04T04:01:38;101882.41;;;7.95;100.00
32237;BME280;18726;44.732;10.550;2023-12-04T04:04:41;101887.72;;;8.00;100.00
32237;BME280;18726;44.732;10.550;2023-12-04T04:07:44;101888.59;;;8.09;100.00
32237;BME280;18726;44.732;10.550;2023-12-04T04:10:48;101898.13;;;7.93;100.00
32237;BME280;18726;44.732;10.550;2023-12-04T04:13:51;101885.00;;;8.14;100.00
32237;BME280;18726;44.732;10.550;2023-12-04T04:16:55;101890.41;;;8.14;100.00
32237;BME280;18726;44.732;10.550;2023-12-04T04:19:58;101885.19;;;8.72;100.00
32237;BME280;18726;44.732;10.550;2023-12-04T04:23:02;101889.88;;;7.71;100.00
32237;BME280;18726;44.732;10.550;2023-12-04T04:26:06;101876.69;;;7.18;100.00
32237;BME280;18726;44.732;10.550;2023-12-04T04:29:09;101876.59;;;6.67;100.00
32237;BME280;18726;44.732;10.550;2023-12-04T04:32:13;101877.22;;;6.16;100.00
32237;BME280;18726;44.732;10.550;2023-12-04T04:35:16;101876.19;;;5.54;100.00
32237;BME280;18726;44.732;10.550;2023-12-04T04:38:20;101870.22;;;5.86;100.00
32237;BME280;18726;44.732;10.550;2023-12-04T04:41:24;101867.16;;;5.69;100.00
32237;BME280;18726;44.732;10.550;2023-12-04T04:44:27;101865.19;;;5.17;100.00
32237;BME280;18726;44.732;10.550;2023-12-04T04:47:31;101863.94;;;4.99;100.00
32237;BME280;18726;44.732;10.550;2023-12-04T04:50:34;101869.38;;;4.94;100.00
32237;BME280;18726;44.732;10.550;2023-12-04T04:53:38;101857.75;;;5.37;100.00
32237;BME280;18726;44.732;10.550;2023-12-04T04:56:42;101856.47;;;5.59;100.00
32237;BME280;18726;44.732;10.550;2023-12-04T04:59:45;101855.47;;;5.78;100.00
32237;BME280;18726;44.732;10.550;2023-12-04T05:02:49;101859.34;;;6.44;100.00
32237;BME280;18726;44.732;10.550;2023-12-04T05:05:52;101875.56;;;7.52;100.00
32237;BME280;18726;44.732;10.550;2023-12-04T05:08:56;101870.88;;;8.31;100.00
32237;BME280;18726;44.732;10.550;2023-12-04T05:12:00;101871.75;;;8.67;100.00
32237;BME280;18726;44.732;10.550;2023-12-04T05:15:04;101871.78;;;8.40;100.00
32237;BME280;18726;44.732;10.550;2023-12-04T05:18:08;101864.91;;;8.84;100.00
32237;BME280;18726;44.732;10.550;2023-12-04T05:21:11;101866.31;;;9.17;100.00
32237;BME280;18726;44.732;10.550;2023-12-04T05:24:15;101879.47;;;9.55;100.00
32237;BME280;18726;44.732;10.550;2023-12-04T05:27:18;101874.03;;;9.77;100.00
32237;BME280;18726;44.732;10.550;2023-12-04T05:30:22;101875.44;;;10.05;100.00
32237;BME280;18726;44.732;10.550;2023-12-04T05:33:26;101881.19;;;10.12;100.00
32237;BME280;18726;44.732;10.550;2023-12-04T05:36:30;101881.69;;;10.14;100.00
32237;BME280;18726;44.732;10.550;2023-12-04T05:39:34;101877.97;;;8.82;81.68
32237;BME280;18726;44.732;10.550;2023-12-04T05:42:37;101875.78;;;8.01;95.57
32237;BME280;18726;44.732;10.550;2023-12-04T05:45:41;101887.84;;;7.63;100.00
32237;BME280;18726;44.732;10.550;2023-12-04T05:48:45;101885.53;;;8.30;100.00
32237;BME280;18726;44.732;10.550;2023-12-04T05:51:49;101887.28;;;8.75;100.00
32237;BME280;18726;44.732;10.550;2023-12-04T05:54:52;101889.59;;;8.82;100.00
32237;BME280;18726;44.732;10.550;2023-12-04T05:57:56;101885.19;;;8.72;100.00
32237;BME280;18726;44.732;10.550;2023-12-04T06:01:00;101881.66;;;9.22;100.00
32237;BME280;18726;44.732;10.550;2023-12-04T06:04:04;101879.59;;;9.27;100.00
32237;BME280;18726;44.732;10.550;2023-12-04T06:07:08;101870.59;;;9.63;100.00
32237;BME280;18726;44.732;10.550;2023-12-04T06:10:12;101875.22;;;9.93;100.00
32237;BME280;18726;44.732;10.550;2023-12-04T06:13:15;101872.25;;;9.72;100.00
32237;BME280;18726;44.732;10.550;2023-12-04T06:16:19;101876.94;;;9.89;100.00
32237;BME280;18726;44.732;10.550;2023-12-04T06:19:22;101883.75;;;10.09;100.00
32237;BME280;18726;44.732;10.550;2023-12-04T06:22:26;101896.66;;;10.03;100.00
32237;BME280;18726;44.732;10.550;2023-12-04T06:25:30;101900.31;;;9.68;100.00
32237;BME280;18726;44.732;10.550;2023-12-04T06:28:34;101890.94;;;9.29;76.13
32237;BME280;18726;44.732;10.550;2023-12-04T06:31:38;101899.25;;;8.74;71.22
32237;BME280;18726;44.732;10.550;2023-12-04T06:34:42;101890.63;;;8.31;71.05
32237;BME280;18726;44.732;10.550;2023-12-04T06:37:48;101884.22;;;8.00;70.38
32237;BME280;18726;44.732;10.550;2023-12-04T06:40:52;101875.47;;;7.89;70.49
32237;BME280;18726;44.732;10.550;2023-12-04T06:43:56;101878.97;;;7.76;69.10
32237;BME280;18726;44.732;10.550;2023-12-04T06:47:01;101869.78;;;8.04;96.33
32237;BME280;18726;44.732;10.550;2023-12-04T06:50:08;101870.56;;;7.77;72.00
32237;BME280;18726;44.732;10.550;2023-12-04T06:53:12;101874.16;;;7.40;72.82
32237;BME280;18726;44.732;10.550;2023-12-04T06:56:15;101873.97;;;7.18;75.83
32237;BME280;18726;44.732;10.550;2023-12-04T06:59:19;101854.75;;;6.44;77.14
32237;BME280;18726;44.732;10.550;2023-12-04T07:02:23;101855.41;;;5.89;79.68
32237;BME280;18726;44.732;10.550;2023-12-04T07:05:27;101854.81;;;5.34;84.89
32237;BME280;18726;44.732;10.550;2023-12-04T07:08:31;101852.09;;;5.00;89.42
32237;BME280;18726;44.732;10.550;2023-12-04T07:11:35;101849.28;;;4.81;92.53
32237;BME280;18726;44.732;10.550;2023-12-04T07:14:39;101844.59;;;4.92;96.71
32237;BME280;18726;44.732;10.550;2023-12-04T07:17:42;101847.78;;;5.04;95.98
32237;BME280;18726;44.732;10.550;2023-12-04T07:20:46;101857.22;;;5.35;96.47
32237;BME280;18726;44.732;10.550;2023-12-04T07:23:49;101861.25;;;5.67;95.97
32237;BME280;18726;44.732;10.550;2023-12-04T07:26:53;101874.84;;;5.52;91.21
32237;BME280;18726;44.732;10.550;2023-12-04T07:29:56;101875.22;;;5.45;91.53
32237;BME280;18726;44.732;10.550;2023-12-04T07:33:00;101865.81;;;6.00;93.49
32237;BME280;18726;44.732;10.550;2023-12-04T07:36:04;101869.41;;;6.38;85.03
32237;BME280;18726;44.732;10.550;2023-12-04T07:39:07;101872.56;;;6.64;82.58
32237;BME280;18726;44.732;10.550;2023-12-04T07:42:12;101879.38;;;7.18;100.00
32237;BME280;18726;44.732;10.550;2023-12-04T07:45:15;101873.16;;;7.83;100.00
32237;BME280;18726;44.732;10.550;2023-12-04T07:48:19;101888.66;;;8.37;100.00
32237;BME280;18726;44.732;10.550;2023-12-04T07:51:22;101892.44;;;8.50;100.00
32237;BME280;18726;44.732;10.550;2023-12-04T07:54:27;101893.81;;;8.74;100.00
32237;BME280;18726;44.732;10.550;2023-12-04T07:57:30;101900.88;;;8.98;100.00
32237;BME280;18726;44.732;10.550;2023-12-04T08:00:35;101901.66;;;9.34;100.00
32237;BME280;18726;44.732;10.550;2023-12-04T08:03:39;101907.94;;;9.66;100.00
32237;BME280;18726;44.732;10.550;2023-12-04T08:06:43;101909.22;;;9.91;100.00
32237;BME280;18726;44.732;10.550;2023-12-04T08:09:47;101901.53;;;9.62;89.39
32237;BME280;18726;44.732;10.550;2023-12-04T08:12:51;101900.78;;;9.70;100.00
32237;BME280;18726;44.732;10.550;2023-12-04T08:15:55;101890.06;;;10.27;100.00
32237;BME280;18726;44.732;10.550;2023-12-04T08:18:59;101891.63;;;10.67;100.00
32237;BME280;18726;44.732;10.550;2023-12-04T08:22:03;101876.16;;;10.94;100.00
32237;BME280;18726;44.732;10.550;2023-12-04T08:25:07;101874.41;;;10.24;97.21
32237;BME280;18726;44.732;10.550;2023-12-04T08:28:11;101862.66;;;10.37;100.00
32237;BME280;18726;44.732;10.550;2023-12-04T08:31:15;101861.19;;;10.31;100.00
32237;BME280;18726;44.732;10.550;2023-12-04T08:34:19;101854.63;;;10.32;100.00
32237;BME280;18726;44.732;10.550;2023-12-04T08:37:23;101850.72;;;10.15;100.00
32237;BME280;18726;44.732;10.550;2023-12-04T08:40:26;101859.34;;;10.18;93.76
32237;BME280;18726;44.732;10.550;2023-12-04T08:43:30;101853.06;;;10.48;100.00
32237;BME280;18726;44.732;10.550;2023-12-04T08:46:34;101843.19;;;10.04;78.01
32237;BME280;18726;44.732;10.550;2023-12-04T08:49:40;101826.97;;;8.84;75.84
32237;BME280;18726;44.732;10.550;2023-12-04T08:52:44;101814.94;;;6.93;87.69
32237;BME280;18726;44.732;10.550;2023-12-04T08:55:48;101822.22;;;7.43;100.00
32237;BME280;18726;44.732;10.550;2023-12-04T08:58:52;101823.56;;;8.28;100.00
32237;BME280;18726;44.732;10.550;2023-12-04T09:01:55;101814.97;;;9.43;100.00
32237;BME280;18726;44.732;10.550;2023-12-04T09:04:59;101823.81;;;10.45;100.00
32237;BME280;18726;44.732;10.550;2023-12-04T09:08:03;101844.75;;;11.39;100.00
32237;BME280;18726;44.732;10.550;2023-12-04T09:11:07;101846.59;;;11.82;100.00
32237;BME280;18726;44.732;10.550;2023-12-04T09:14:11;101846.06;;;12.27;100.00
32237;BME280;18726;44.732;10.550;2023-12-04T09:17:15;101855.69;;;12.54;90.96
32237;BME280;18726;44.732;10.550;2023-12-04T09:20:19;101855.06;;;12.18;96.96
32237;BME280;18726;44.732;10.550;2023-12-04T09:23:22;101841.59;;;12.22;100.00
32237;BME280;18726;44.732;10.550;2023-12-04T09:26:26;101840.75;;;11.28;74.71
32237;BME280;18726;44.732;10.550;2023-12-04T09:29:30;101827.94;;;10.25;82.28
32237;BME280;18726;44.732;10.550;2023-12-04T09:32:34;101815.69;;;9.35;84.17
32237;BME280;18726;44.732;10.550;2023-12-04T09:35:38;101798.31;;;8.69;84.77
32237;BME280;18726;44.732;10.550;2023-12-04T09:38:43;101786.91;;;7.95;88.43
32237;BME280;18726;44.732;10.550;2023-12-04T09:41:47;101803.28;;;8.89;100.00
32237;BME280;18726;44.732;10.550;2023-12-04T09:44:52;101810.44;;;10.00;100.00
32237;BME280;18726;44.732;10.550;2023-12-04T09:47:56;101809.16;;;10.89;100.00
32237;BME280;18726;44.732;10.550;2023-12-04T09:50:59;101801.75;;;11.24;100.00
32237;BME280;18726;44.732;10.550;2023-12-04T09:54:05;101795.06;;;11.77;100.00
32237;BME280;18726;44.732;10.550;2023-12-04T09:57:10;101790.09;;;12.08;100.00
32237;BME280;18726;44.732;10.550;2023-12-04T10:00:14;101787.44;;;12.21;100.00
32237;BME280;18726;44.732;10.550;2023-12-04T10:03:18;101782.66;;;12.17;96.58
32237;BME280;18726;44.732;10.550;2023-12-04T10:06:23;101769.66;;;12.23;97.31
32237;BME280;18726;44.732;10.550;2023-12-04T10:09:30;101741.84;;;10.77;76.54
32237;BME280;18726;44.732;10.550;2023-12-04T10:12:34;101728.28;;;7.90;91.12
32237;BME280;18726;44.732;10.550;2023-12-04T10:15:49;101713.66;;;9.08;100.00
32237;BME280;18726;44.732;10.550;2023-12-04T10:18:53;101724.84;;;10.11;100.00
32237;BME280;18726;44.732;10.550;2023-12-04T10:21:58;101741.69;;;10.74;100.00
32237;BME280;18726;44.732;10.550;2023-12-04T10:25:15;101753.63;;;11.16;100.00
32237;BME280;18726;44.732;10.550;2023-12-04T10:28:19;101754.25;;;11.60;100.00
32237;BME280;18726;44.732;10.550;2023-12-04T10:31:23;101749.50;;;11.86;100.00
32237;BME280;18726;44.732;10.550;2023-12-04T10:34:27;101741.47;;;12.19;100.00
32237;BME280;18726;44.732;10.550;2023-12-04T10:37:32;101752.38;;;12.19;95.20
32237;BME280;18726;44.732;10.550;2023-12-04T10:40:37;101738.28;;;11.88;95.04
32237;BME280;18726;44.732;10.550;2023-12-04T10:43:47;101738.56;;;12.24;100.00
32237;BME280;18726;44.732;10.550;2023-12-04T10:46:57;101738.16;;;12.55;84.95
32237;BME280;18726;44.732;10.550;2023-12-04T10:50:02;101731.13;;;12.33;75.37
32237;BME280;18726;44.732;10.550;2023-12-04T10:53:07;101722.56;;;11.93;72.27
32237;BME280;18726;44.732;10.550;2023-12-04T10:56:18;101719.63;;;11.77;71.73
32237;BME280;18726;44.732;10.550;2023-12-04T10:59:27;101712.88;;;11.83;71.48
32237;BME280;18726;44.732;10.550;2023-12-04T11:02:33;101707.53;;;11.87;70.60
32237;BME280;18726;44.732;10.550;2023-12-04T11:05:38;101714.59;;;11.88;69.19
32237;BME280;18726;44.732;10.550;2023-12-04T11:08:44;101710.53;;;11.65;69.32
32237;BME280;18726;44.732;10.550;2023-12-04T11:11:57;101705.75;;;11.62;70.68
32237;BME280;18726;44.732;10.550;2023-12-04T11:15:04;101692.25;;;11.74;71.80
32237;BME280;18726;44.732;10.550;2023-12-04T11:18:12;101690.81;;;11.76;70.51
32237;BME280;18726;44.732;10.550;2023-12-04T11:21:18;101680.13;;;11.63;68.02
32237;BME280;18726;44.732;10.550;2023-12-04T11:24:24;101682.19;;;11.66;74.85
32237;BME280;18726;44.732;10.550;2023-12-04T11:27:28;101679.63;;;11.69;72.45
32237;BME280;18726;44.732;10.550;2023-12-04T11:30:32;101675.75;;;11.79;72.92
32237;BME280;18726;44.732;10.550;2023-12-04T11:33:36;101668.38;;;11.79;71.57
32237;BME280;18726;44.732;10.550;2023-12-04T11:36:40;101665.13;;;11.86;71.01
32237;BME280;18726;44.732;10.550;2023-12-04T11:39:49;101668.59;;;11.95;70.65
32237;BME280;18726;44.732;10.550;2023-12-04T11:42:53;101659.38;;;12.08;70.22
32237;BME280;18726;44.732;10.550;2023-12-04T11:46:08;101660.41;;;11.95;68.19
32237;BME280;18726;44.732;10.550;2023-12-04T11:49:29;101665.00;;;12.03;69.72
32237;BME280;18726;44.732;10.550;2023-12-04T11:52:33;101660.84;;;12.06;69.84
32237;BME280;18726;44.732;10.550;2023-12-04T11:55:41;101661.50;;;12.03;69.17
32237;BME280;18726;44.732;10.550;2023-12-04T11:58:47;101643.00;;;11.29;68.16
32237;BME280;18726;44.732;10.550;2023-12-04T12:01:53;101633.66;;;11.09;72.34
32237;BME280;18726;44.732;10.550;2023-12-04T12:04:59;101628.97;;;10.71;70.94
32237;BME280;18726;44.732;10.550;2023-12-04T12:08:03;101626.53;;;10.96;75.90
32237;BME280;18726;44.732;10.550;2023-12-04T12:11:07;101627.94;;;11.02;76.79
32237;BME280;18726;44.732;10.550;2023-12-04T12:14:11;101630.47;;;11.07;75.00
32237;BME280;18726;44.732;10.550;2023-12-04T12:17:15;101628.56;;;10.99;77.21
32237;BME280;18726;44.732;10.550;2023-12-04T12:20:19;101624.25;;;10.51;74.07
32237;BME280;18726;44.732;10.550;2023-12-04T12:23:26;101622.00;;;10.44;78.06
32237;BME280;18726;44.732;10.550;2023-12-04T12:26:30;101625.78;;;10.69;78.59
32237;BME280;18726;44.732;10.550;2023-12-04T12:29:34;101629.41;;;10.91;78.54
32237;BME280;18726;44.732;10.550;2023-12-04T12:32:38;101613.22;;;11.03;77.70
32237;BME280;18726;44.732;10.550;2023-12-04T12:35:42;101619.25;;;11.17;75.78
32237;BME280;18726;44.732;10.550;2023-12-04T12:38:45;101616.94;;;11.28;74.66
32237;BME280;18726;44.732;10.550;2023-12-04T12:41:53;101613.22;;;11.32;74.69
32237;BME280;18726;44.732;10.550;2023-12-04T12:45:00;101610.50;;;11.32;72.84
32237;BME280;18726;44.732;10.550;2023-12-04T12:48:04;101606.53;;;11.30;71.62
32237;BME280;18726;44.732;10.550;2023-12-04T12:51:08;101602.69;;;11.31;74.14
32237;BME280;18726;44.732;10.550;2023-12-04T12:54:14;101601.31;;;11.16;76.56
32237;BME280;18726;44.732;10.550;2023-12-04T12:57:18;101594.59;;;11.22;73.61
32237;BME280;18726;44.732;10.550;2023-12-04T13:00:23;101588.19;;;11.18;72.77
32237;BME280;18726;44.732;10.550;2023-12-04T13:03:28;101591.72;;;11.19;72.42
32237;BME280;18726;44.732;10.550;2023-12-04T13:06:33;101588.75;;;10.56;70.11
32237;BME280;18726;44.732;10.550;2023-12-04T13:09:37;101575.72;;;10.06;74.38
32237;BME280;18726;44.732;10.550;2023-12-04T13:12:41;101574.75;;;10.20;78.22
32237;BME280;18726;44.732;10.550;2023-12-04T13:15:45;101573.63;;;10.29;77.49
32237;BME280;18726;44.732;10.550;2023-12-04T13:18:49;101573.91;;;10.45;77.15
32237;BME280;18726;44.732;10.550;2023-12-04T13:21:53;101561.41;;;10.61;78.64
32237;BME280;18726;44.732;10.550;2023-12-04T13:24:56;101559.28;;;10.75;77.80
32237;BME280;18726;44.732;10.550;2023-12-04T13:28:00;101558.94;;;10.86;77.25
32237;BME280;18726;44.732;10.550;2023-12-04T13:31:04;101558.41;;;10.92;77.74
32237;BME280;18726;44.732;10.550;2023-12-04T13:34:08;101564.00;;;10.96;76.12
32237;BME280;18726;44.732;10.550;2023-12-04T13:37:12;101565.59;;;10.97;76.28
32237;BME280;18726;44.732;10.550;2023-12-04T13:40:15;101548.34;;;10.93;76.68
32237;BME280;18726;44.732;10.550;2023-12-04T13:43:19;101549.16;;;10.93;77.61
32237;BME280;18726;44.732;10.550;2023-12-04T13:46:41;101546.94;;;11.16;77.56
32237;BME280;18726;44.732;10.550;2023-12-04T13:49:45;101539.47;;;11.04;76.89
32237;BME280;18726;44.732;10.550;2023-12-04T13:52:50;101547.97;;;11.03;77.36
32237;BME280;18726;44.732;10.550;2023-12-04T13:55:58;101553.41;;;11.03;76.80
32237;BME280;18726;44.732;10.550;2023-12-04T13:59:05;101549.00;;;10.90;73.96
32237;BME280;18726;44.732;10.550;2023-12-04T14:02:10;101551.25;;;10.88;75.98
32237;BME280;18726;44.732;10.550;2023-12-04T14:05:15;101545.06;;;10.70;75.50
32237;BME280;18726;44.732;10.550;2023-12-04T14:08:19;101547.84;;;10.61;76.51
32237;BME280;18726;44.732;10.550;2023-12-04T14:11:22;101551.53;;;10.57;80.90
32237;BME280;18726;44.732;10.550;2023-12-04T14:14:26;101558.53;;;10.66;79.75
32237;BME280;18726;44.732;10.550;2023-12-04T14:17:30;101554.69;;;10.67;80.77
32237;BME280;18726;44.732;10.550;2023-12-04T14:20:33;101557.84;;;10.69;79.98
32237;BME280;18726;44.732;10.550;2023-12-04T14:23:37;101559.66;;;10.65;79.78
32237;BME280;18726;44.732;10.550;2023-12-04T14:26:40;101552.31;;;10.57;80.32
32237;BME280;18726;44.732;10.550;2023-12-04T14:29:44;101548.03;;;10.47;82.05
32237;BME280;18726;44.732;10.550;2023-12-04T14:32:48;101548.81;;;10.48;83.11
32237;BME280;18726;44.732;10.550;2023-12-04T14:35:52;101550.94;;;10.34;79.33
32237;BME280;18726;44.732;10.550;2023-12-04T14:38:56;101546.94;;;10.14;80.02
32237;BME280;18726;44.732;10.550;2023-12-04T14:42:00;101557.69;;;10.10;80.73
32237;BME280;18726;44.732;10.550;2023-12-04T14:45:04;101565.50;;;10.03;81.57
32237;BME280;18726;44.732;10.550;2023-12-04T14:48:08;101561.81;;;9.91;83.16
32237;BME280;18726;44.732;10.550;2023-12-04T14:51:12;101548.25;;;9.82;83.75
32237;BME280;18726;44.732;10.550;2023-12-04T14:54:16;101552.88;;;9.64;83.86
32237;BME280;18726;44.732;10.550;2023-12-04T14:57:38;101550.81;;;9.53;84.42
32237;BME280;18726;44.732;10.550;2023-12-04T15:00:44;101544.91;;;9.42;85.29
32237;BME280;18726;44.732;10.550;2023-12-04T15:04:07;101544.44;;;9.48;84.00
32237;BME280;18726;44.732;10.550;2023-12-04T15:07:17;101538.16;;;9.31;85.12
32237;BME280;18726;44.732;10.550;2023-12-04T15:10:23;101546.63;;;9.29;87.66
32237;BME280;18726;44.732;10.550;2023-12-04T15:13:42;101545.84;;;9.55;96.87
32237;BME280;18726;44.732;10.550;2023-12-04T15:16:49;101534.03;;;9.59;97.11
32237;BME280;18726;44.732;10.550;2023-12-04T15:20:04;101529.44;;;9.60;96.38
32237;BME280;18726;44.732;10.550;2023-12-04T15:23:13;101533.59;;;9.74;99.40
32237;BME280;18726;44.732;10.550;2023-12-04T15:26:17;101521.78;;;9.79;97.82
32237;BME280;18726;44.732;10.550;2023-12-04T15:29:21;101514.88;;;9.90;92.26
32237;BME280;18726;44.732;10.550;2023-12-04T15:32:25;101503.09;;;9.69;83.91
32237;BME280;18726;44.732;10.550;2023-12-04T15:35:29;101499.44;;;9.65;83.20
32237;BME280;18726;44.732;10.550;2023-12-04T15:38:33;101491.78;;;9.50;82.25
32237;BME280;18726;44.732;10.550;2023-12-04T15:41:37;101500.84;;;9.28;83.20
32237;BME280;18726;44.732;10.550;2023-12-04T15:44:41;101488.41;;;9.27;85.42
32237;BME280;18726;44.732;10.550;2023-12-04T15:47:45;101484.84;;;8.92;83.93
32237;BME280;18726;44.732;10.550;2023-12-04T15:50:48;101494.16;;;8.60;84.21
32237;BME280;18726;44.732;10.550;2023-12-04T15:53:52;101493.88;;;8.78;84.86